createdAt,value
2022-07-25T00:01:30.556Z,21.54
2022-07-25T00:03:57.099Z,21.53
2022-07-25T00:06:23.849Z,21.51
2022-07-25T00:08:51.537Z,21.49
2022-07-25T00:11:17.888Z,21.49
2022-07-25T00:13:44.278Z,21.49
2022-07-25T00:16:10.725Z,21.45
2022-07-25T00:18:37.069Z,21.42
2022-07-25T00:21:03.671Z,21.36
2022-07-25T00:23:30.099Z,21.27
2022-07-25T00:25:58.089Z,21.20
2022-07-25T00:28:26.157Z,21.15
2022-07-25T00:30:52.552Z,21.09
2022-07-25T00:33:18.999Z,20.99
2022-07-25T00:35:45.371Z,20.94
2022-07-25T00:38:11.714Z,20.89
2022-07-25T00:40:38.463Z,20.85
2022-07-25T00:43:06.153Z,20.82
2022-07-25T00:45:32.567Z,20.79
2022-07-25T00:47:58.905Z,20.74
2022-07-25T00:50:25.309Z,20.75
2022-07-25T00:52:52.024Z,20.74
2022-07-25T00:55:18.485Z,20.69
2022-07-25T00:57:44.878Z,20.59
2022-07-25T01:00:14.439Z,20.52
2022-07-25T01:02:41.207Z,20.51
2022-07-25T01:05:08.243Z,20.45
2022-07-25T01:07:37.585Z,20.42
2022-07-25T01:10:04.478Z,20.39
2022-07-25T01:12:30.816Z,20.36
2022-07-25T01:14:57.281Z,20.34
2022-07-25T01:17:24.989Z,20.33
2022-07-25T01:19:51.328Z,20.34
2022-07-25T01:22:18.998Z,20.35
2022-07-25T01:24:45.337Z,20.31
2022-07-25T01:27:17.456Z,20.30
2022-07-25T01:29:43.974Z,20.31
2022-07-25T01:32:11.700Z,20.30
2022-07-25T01:34:38.026Z,20.34
2022-07-25T01:37:04.425Z,20.38
2022-07-25T01:39:32.146Z,20.40
2022-07-25T01:41:58.460Z,20.42
2022-07-25T01:44:24.797Z,20.44
2022-07-25T01:46:51.118Z,20.43
2022-07-25T01:49:17.573Z,20.44
2022-07-25T01:51:43.972Z,20.45
2022-07-25T01:54:10.646Z,20.48
2022-07-25T01:56:42.454Z,20.51
2022-07-25T01:59:09.263Z,20.53
2022-07-25T02:01:36.259Z,20.54
2022-07-25T02:04:03.236Z,20.55
2022-07-25T02:06:29.824Z,20.58
2022-07-25T02:08:56.158Z,20.58
2022-07-25T02:11:22.501Z,20.58
2022-07-25T02:13:50.173Z,20.58
2022-07-25T02:16:16.508Z,20.59
2022-07-25T02:18:42.866Z,20.59
2022-07-25T02:21:14.492Z,20.59
2022-07-25T02:23:41.406Z,20.57
2022-07-25T02:26:07.738Z,20.58
2022-07-25T02:28:34.074Z,20.56
2022-07-25T02:31:01.811Z,20.55
2022-07-25T02:33:28.233Z,20.55
2022-07-25T02:35:54.557Z,20.52
2022-07-25T02:38:20.976Z,20.51
2022-07-25T02:40:47.877Z,20.50
2022-07-25T02:43:14.217Z,20.49
2022-07-25T02:45:42.117Z,20.42
2022-07-25T02:48:09.984Z,20.32
2022-07-25T02:50:36.413Z,20.26
2022-07-25T02:53:02.861Z,20.25
2022-07-25T02:55:29.262Z,20.20
2022-07-25T02:57:55.588Z,20.19
2022-07-25T03:00:22.291Z,20.19
2022-07-25T03:02:48.757Z,20.17
2022-07-25T03:05:16.865Z,20.18
2022-07-25T03:07:44.366Z,20.18
2022-07-25T03:10:11.905Z,20.19
2022-07-25T03:12:38.827Z,20.18
2022-07-25T03:15:05.842Z,20.15
2022-07-25T03:17:32.529Z,20.08
2022-07-25T03:19:58.991Z,20.06
2022-07-25T03:22:26.677Z,20.05
2022-07-25T03:24:53.271Z,20.08
2022-07-25T03:27:19.871Z,20.09
2022-07-25T03:29:46.410Z,20.07
2022-07-25T03:32:12.853Z,20.08
2022-07-25T03:34:39.261Z,20.08
2022-07-25T03:37:05.614Z,20.10
2022-07-25T03:39:33.402Z,20.10
2022-07-25T03:41:59.744Z,20.09
2022-07-25T03:44:26.090Z,20.09
2022-07-25T03:46:52.587Z,20.08
2022-07-25T03:49:19.089Z,20.09
2022-07-25T03:51:45.541Z,20.08
2022-07-25T03:54:11.977Z,20.10
2022-07-25T03:56:43.659Z,20.06
2022-07-25T03:59:11.880Z,20.05
2022-07-25T04:01:38.608Z,20.08
2022-07-25T04:04:05.273Z,20.09
2022-07-25T04:06:31.981Z,20.09
2022-07-25T04:08:58.296Z,20.07
2022-07-25T04:11:24.934Z,20.11
2022-07-25T04:13:52.600Z,20.15
2022-07-25T04:16:22.537Z,20.17
2022-07-25T04:18:49.248Z,20.22
2022-07-25T04:21:15.728Z,20.25
2022-07-25T04:23:42.070Z,20.26
2022-07-25T04:26:08.381Z,20.23
2022-07-25T04:28:34.762Z,20.21
2022-07-25T04:31:02.466Z,20.22
2022-07-25T04:33:28.815Z,20.23
2022-07-25T04:35:55.173Z,20.22
2022-07-25T04:38:21.499Z,20.21
2022-07-25T04:40:47.804Z,20.26
2022-07-25T04:43:14.228Z,20.27
2022-07-25T04:45:40.775Z,20.29
2022-07-25T04:48:08.512Z,20.34
2022-07-25T04:50:34.852Z,20.41
2022-07-25T04:53:01.227Z,20.47
2022-07-25T04:55:27.616Z,20.54
2022-07-25T04:57:53.987Z,20.61
2022-07-25T05:00:20.319Z,20.71
2022-07-25T05:02:46.664Z,20.82
2022-07-25T05:05:21.687Z,20.92
2022-07-25T05:07:48.905Z,21.01
2022-07-25T05:10:15.250Z,21.08
2022-07-25T05:12:41.579Z,21.18
2022-07-25T05:15:08.465Z,21.29
2022-07-25T05:17:34.931Z,21.36
2022-07-25T05:20:01.647Z,21.42
2022-07-25T05:22:29.385Z,21.47
2022-07-25T05:24:55.743Z,21.53
2022-07-25T05:27:22.082Z,21.62
2022-07-25T05:29:48.431Z,21.65
2022-07-25T05:32:14.753Z,21.68
2022-07-25T05:34:41.077Z,21.72
2022-07-25T05:37:07.437Z,21.76
2022-07-25T05:39:35.108Z,21.80
2022-07-25T05:42:01.439Z,21.84
2022-07-25T05:44:27.764Z,21.89
2022-07-25T05:46:54.149Z,21.93
2022-07-25T05:49:20.593Z,21.98
2022-07-25T05:51:46.991Z,22.06
2022-07-25T05:54:13.321Z,22.11
2022-07-25T05:56:41.018Z,22.18
2022-07-25T05:59:07.399Z,22.24
2022-07-25T06:01:33.827Z,22.29
2022-07-25T06:04:00.224Z,22.33
2022-07-25T06:06:26.570Z,22.37
2022-07-25T06:08:52.901Z,22.41
2022-07-25T06:11:20.631Z,22.45
2022-07-25T06:13:48.975Z,22.50
2022-07-25T06:16:15.327Z,22.55
2022-07-25T06:18:41.865Z,22.57
2022-07-25T06:21:08.167Z,22.60
2022-07-25T06:23:34.720Z,22.60
2022-07-25T06:26:01.186Z,22.60
2022-07-25T06:28:27.712Z,22.61
2022-07-25T06:30:55.722Z,22.60
2022-07-25T06:33:22.056Z,22.61
2022-07-25T06:35:48.500Z,22.59
2022-07-25T06:38:15.035Z,22.62
2022-07-25T06:40:41.549Z,22.64
2022-07-25T06:43:07.877Z,22.64
2022-07-25T06:45:34.323Z,22.65
2022-07-25T06:48:02.071Z,22.66
2022-07-25T06:50:28.509Z,22.69
2022-07-25T06:52:54.824Z,22.83
2022-07-25T06:55:21.159Z,22.86
2022-07-25T06:57:47.522Z,22.77
2022-07-25T07:00:14.118Z,22.83
2022-07-25T07:02:50.447Z,22.85
2022-07-25T07:05:18.602Z,22.79
2022-07-25T07:07:47.795Z,22.83
2022-07-25T07:10:14.799Z,22.83
2022-07-25T07:12:41.165Z,23.03
2022-07-25T07:15:07.851Z,23.01
2022-07-25T07:17:34.184Z,23.09
2022-07-25T07:20:00.520Z,23.00
2022-07-25T07:22:28.568Z,22.96
2022-07-25T07:24:55.384Z,22.82
2022-07-25T07:27:21.980Z,22.75
2022-07-25T07:29:48.315Z,22.95
2022-07-25T07:32:14.697Z,22.73
2022-07-25T07:34:41.050Z,22.75
2022-07-25T07:37:07.376Z,22.92
2022-07-25T07:39:35.052Z,22.80
2022-07-25T07:42:01.371Z,22.90
2022-07-25T07:44:27.712Z,22.84
2022-07-25T07:46:54.114Z,22.86
2022-07-25T07:49:20.596Z,22.79
2022-07-25T07:51:47.107Z,22.84
2022-07-25T07:54:13.439Z,22.85
2022-07-25T07:56:41.142Z,22.87
2022-07-25T07:59:07.887Z,22.85
2022-07-25T08:01:34.674Z,23.10
2022-07-25T08:04:01.085Z,23.09
2022-07-25T08:06:27.415Z,23.07
2022-07-25T08:08:53.775Z,23.52
2022-07-25T08:11:20.117Z,23.43
2022-07-25T08:13:47.794Z,23.49
2022-07-25T08:16:14.156Z,23.58
2022-07-25T08:18:40.609Z,23.73
2022-07-25T08:21:07.044Z,23.92
2022-07-25T08:23:33.451Z,23.83
2022-07-25T08:25:59.929Z,23.82
2022-07-25T08:28:26.290Z,23.89
2022-07-25T08:30:54.447Z,24.07
2022-07-25T08:33:21.024Z,24.00
2022-07-25T08:35:47.988Z,24.05
2022-07-25T08:38:14.329Z,24.20
2022-07-25T08:40:40.685Z,24.12
2022-07-25T08:43:10.611Z,23.94
2022-07-25T08:45:39.686Z,24.03
2022-07-25T08:48:07.587Z,24.06
2022-07-25T08:50:33.913Z,24.03
2022-07-25T08:53:30.302Z,23.99
2022-07-25T08:55:47.482Z,23.95
2022-07-25T08:58:14.544Z,23.92
2022-07-25T09:00:41.076Z,23.95
2022-07-25T09:03:08.873Z,24.07
2022-07-25T09:05:36.854Z,24.24
2022-07-25T09:08:07.215Z,24.48
2022-07-25T09:10:33.628Z,24.57
2022-07-25T09:13:01.184Z,24.84
2022-07-25T09:15:28.756Z,24.93
2022-07-25T09:17:56.276Z,24.98
2022-07-25T09:20:24.027Z,24.97
2022-07-25T09:22:50.619Z,25.06
2022-07-25T09:25:20.968Z,25.10
2022-07-25T09:27:47.273Z,25.18
2022-07-25T09:30:14.553Z,25.28
2022-07-25T09:32:41.243Z,25.37
2022-07-25T09:35:07.770Z,25.18
2022-07-25T09:37:35.445Z,25.21
2022-07-25T09:40:01.825Z,25.35
2022-07-25T09:42:28.937Z,25.50
2022-07-25T09:45:01.963Z,25.70
2022-07-25T09:47:28.540Z,25.66
2022-07-25T09:49:55.267Z,25.44
2022-07-25T09:52:21.677Z,25.50
2022-07-25T09:54:49.710Z,25.65
2022-07-25T09:57:16.480Z,25.75
2022-07-25T09:59:43.034Z,25.65
2022-07-25T10:02:10.280Z,25.60
2022-07-25T10:04:45.442Z,25.76
2022-07-25T10:07:14.093Z,25.66
2022-07-25T10:09:44.621Z,25.65
2022-07-25T10:12:13.414Z,25.52
2022-07-25T10:14:39.851Z,25.78
2022-07-25T10:17:07.160Z,25.51
2022-07-25T10:19:40.126Z,25.52
2022-07-25T10:22:06.489Z,25.40
2022-07-25T10:24:33.579Z,25.55
2022-07-25T10:27:07.062Z,25.88
2022-07-25T10:29:35.367Z,26.22
2022-07-25T10:32:05.745Z,26.36
2022-07-25T10:34:32.095Z,26.31
2022-07-25T10:37:08.537Z,26.06
2022-07-25T10:39:37.698Z,25.96
2022-07-25T10:42:04.851Z,26.08
2022-07-25T10:44:41.213Z,26.33
2022-07-25T10:47:08.957Z,26.42
2022-07-25T10:49:36.017Z,26.54
2022-07-25T10:52:03.895Z,26.67
2022-07-25T10:54:33.435Z,26.74
2022-07-25T10:57:00.389Z,26.76
2022-07-25T10:59:27.778Z,26.75
2022-07-25T11:01:55.479Z,26.72
2022-07-25T11:04:21.851Z,26.80
2022-07-25T11:06:48.202Z,26.92
2022-07-25T11:09:18.614Z,27.03
2022-07-25T11:11:46.916Z,26.98
2022-07-25T11:14:17.064Z,26.77
2022-07-25T11:16:43.911Z,26.78
2022-07-25T11:19:22.433Z,26.88
2022-07-25T11:21:49.615Z,27.02
2022-07-25T11:24:15.963Z,27.03
2022-07-25T11:26:45.850Z,27.00
2022-07-25T11:29:17.899Z,27.14
2022-07-25T11:31:50.754Z,27.40
2022-07-25T11:34:17.312Z,27.68
2022-07-25T11:36:45.083Z,27.76
2022-07-25T11:39:16.821Z,27.79
2022-07-25T11:41:45.102Z,27.97
2022-07-25T11:44:11.440Z,27.84
2022-07-25T11:46:41.594Z,28.03
2022-07-25T11:49:08.267Z,27.99
2022-07-25T11:51:36.436Z,27.83
2022-07-25T11:54:09.002Z,27.81
2022-07-25T11:56:42.905Z,27.59
2022-07-25T11:59:10.161Z,27.65
2022-07-25T12:01:37.972Z,27.68
2022-07-25T12:04:08.281Z,27.66
2022-07-25T12:06:34.608Z,27.74
2022-07-25T12:09:15.029Z,28.03
2022-07-25T12:11:45.204Z,28.27
2022-07-25T12:14:12.123Z,28.35
2022-07-25T12:16:38.968Z,28.58
2022-07-25T12:19:09.126Z,28.75
2022-07-25T12:21:35.847Z,28.57
2022-07-25T12:24:02.202Z,28.43
2022-07-25T12:26:30.044Z,28.33
2022-07-25T12:28:56.370Z,28.30
2022-07-25T12:31:22.798Z,27.92
2022-07-25T12:33:49.183Z,27.65
2022-07-25T12:36:15.529Z,27.44
2022-07-25T12:38:41.891Z,27.28
2022-07-25T12:41:08.239Z,27.05
2022-07-25T12:43:35.924Z,26.91
2022-07-25T12:46:02.301Z,26.78
2022-07-25T12:48:28.711Z,26.72
2022-07-25T12:50:55.124Z,26.83
2022-07-25T12:53:21.466Z,26.72
2022-07-25T12:55:47.827Z,26.70
2022-07-25T12:58:14.174Z,26.40
2022-07-25T13:00:41.930Z,26.37
2022-07-25T13:03:08.278Z,26.60
2022-07-25T13:05:34.601Z,26.14
2022-07-25T13:08:00.938Z,26.13
2022-07-25T13:10:27.286Z,25.45
2022-07-25T13:12:53.608Z,25.10
2022-07-25T13:15:20.032Z,25.00
2022-07-25T13:17:47.862Z,25.01
2022-07-25T13:20:14.274Z,25.04
2022-07-25T13:22:40.625Z,24.67
2022-07-25T13:25:07.362Z,24.55
2022-07-25T13:27:33.773Z,24.71
2022-07-25T13:30:00.145Z,24.89
2022-07-25T13:32:26.536Z,24.89
2022-07-25T13:34:54.218Z,25.02
2022-07-25T13:37:20.706Z,25.10
2022-07-25T13:39:47.081Z,25.26
2022-07-25T13:42:13.468Z,25.29
2022-07-25T13:44:39.845Z,25.44
2022-07-25T13:47:06.357Z,25.51
2022-07-25T13:49:32.731Z,25.48
2022-07-25T13:52:00.444Z,25.54
2022-07-25T13:54:26.862Z,25.58
2022-07-25T13:56:53.391Z,25.61
2022-07-25T13:59:21.650Z,25.58
2022-07-25T14:01:48.449Z,25.57
2022-07-25T14:04:14.822Z,25.58
2022-07-25T14:06:41.365Z,25.52
2022-07-25T14:09:09.592Z,25.46
2022-07-25T14:11:36.270Z,25.41
2022-07-25T14:14:02.796Z,25.43
2022-07-25T14:16:29.313Z,25.33
2022-07-25T14:18:55.710Z,25.28
2022-07-25T14:21:22.062Z,25.44
2022-07-25T14:23:48.507Z,25.40
2022-07-25T14:26:16.205Z,25.38
2022-07-25T14:28:42.549Z,25.48
2022-07-25T14:31:08.957Z,25.51
2022-07-25T14:33:35.318Z,25.61
2022-07-25T14:36:01.710Z,25.64
2022-07-25T14:38:28.057Z,25.80
2022-07-25T14:40:54.390Z,25.79
2022-07-25T14:43:22.084Z,25.78
2022-07-25T14:45:48.460Z,25.78
2022-07-25T14:48:14.822Z,25.87
2022-07-25T14:50:41.168Z,25.68
2022-07-25T14:53:07.525Z,25.70
2022-07-25T14:55:34.216Z,25.72
2022-07-25T14:58:00.531Z,25.87
2022-07-25T15:00:29.641Z,25.81
2022-07-25T15:02:56.257Z,25.85
2022-07-25T15:05:22.763Z,25.95
2022-07-25T15:07:49.229Z,25.95
2022-07-25T15:10:15.600Z,25.93
2022-07-25T15:12:42.054Z,25.96
2022-07-25T15:15:08.578Z,26.02
2022-07-25T15:17:36.265Z,26.13
2022-07-25T15:20:02.719Z,26.17
2022-07-25T15:22:29.043Z,26.01
2022-07-25T15:25:34.855Z,25.97
2022-07-25T15:27:41.673Z,25.78
2022-07-25T15:30:08.456Z,25.72
2022-07-25T15:32:36.169Z,25.38
2022-07-25T15:35:02.671Z,25.45
2022-07-25T15:37:29.052Z,25.47
2022-07-25T15:39:55.414Z,25.54
2022-07-25T15:42:24.529Z,25.48
2022-07-25T15:45:15.155Z,25.50
2022-07-25T15:47:46.281Z,25.39
2022-07-25T15:50:17.140Z,25.24
2022-07-25T15:52:43.505Z,25.42
2022-07-25T15:55:09.855Z,25.56
2022-07-25T15:57:36.424Z,25.60
2022-07-25T16:00:03.452Z,25.73
2022-07-25T16:02:29.772Z,25.67
2022-07-25T16:04:57.473Z,25.59
2022-07-25T16:07:23.850Z,25.66
2022-07-25T16:09:50.184Z,25.66
2022-07-25T16:12:16.880Z,25.68
2022-07-25T16:14:43.217Z,25.68
2022-07-25T16:17:09.544Z,25.41
2022-07-25T16:19:35.867Z,25.49
2022-07-25T16:22:03.582Z,25.51
2022-07-25T16:24:29.916Z,25.46
2022-07-25T16:26:56.296Z,25.43
2022-07-25T16:29:22.700Z,25.47
2022-07-25T16:31:49.589Z,25.46
2022-07-25T16:34:15.932Z,25.18
2022-07-25T16:36:42.265Z,25.14
2022-07-25T16:39:10.436Z,25.07
2022-07-25T16:41:37.095Z,25.09
2022-07-25T16:44:03.454Z,25.17
2022-07-25T16:46:29.856Z,25.29
2022-07-25T16:48:56.275Z,25.33
2022-07-25T16:51:22.652Z,25.43
2022-07-25T16:53:49.004Z,25.42
2022-07-25T16:56:16.996Z,25.24
2022-07-25T16:58:43.344Z,25.08
2022-07-25T17:01:09.700Z,24.93
2022-07-25T17:03:36.018Z,25.07
2022-07-25T17:06:02.423Z,25.13
2022-07-25T17:08:28.797Z,25.01
2022-07-25T17:10:55.144Z,25.05
2022-07-25T17:13:22.848Z,25.08
2022-07-25T17:15:49.216Z,24.91
2022-07-25T17:18:15.614Z,24.93
2022-07-25T17:20:42.331Z,24.70
2022-07-25T17:23:08.765Z,24.55
2022-07-25T17:25:35.197Z,24.44
2022-07-25T17:28:01.597Z,24.40
2022-07-25T17:30:29.282Z,24.49
2022-07-25T17:32:55.616Z,24.38
2022-07-25T17:35:21.962Z,24.63
2022-07-25T17:37:48.358Z,24.34
2022-07-25T17:40:14.698Z,24.27
2022-07-25T17:42:45.055Z,24.19
2022-07-25T17:45:11.976Z,24.31
2022-07-25T17:47:39.979Z,24.03
2022-07-25T17:50:06.650Z,24.15
2022-07-25T17:52:33.346Z,24.06
2022-07-25T17:54:59.676Z,23.81
2022-07-25T17:57:26.009Z,23.69
2022-07-25T17:59:52.348Z,23.56
2022-07-25T18:02:18.763Z,23.44
2022-07-25T18:04:46.660Z,23.43
2022-07-25T18:07:12.986Z,23.40
2022-07-25T18:09:39.327Z,23.41
2022-07-25T18:12:05.935Z,23.30
2022-07-25T18:14:32.252Z,23.22
2022-07-25T18:16:58.598Z,23.30
2022-07-25T18:19:24.978Z,23.22
2022-07-25T18:21:53.062Z,23.17
2022-07-25T18:24:19.420Z,23.14
2022-07-25T18:26:45.804Z,23.18
2022-07-25T18:29:12.110Z,23.13
2022-07-25T18:31:38.520Z,23.08
2022-07-25T18:34:05.308Z,23.09
2022-07-25T18:36:31.841Z,23.01
2022-07-25T18:38:59.539Z,22.98
2022-07-25T18:41:29.544Z,23.00
2022-07-25T18:43:56.537Z,23.01
2022-07-25T18:46:23.471Z,23.09
2022-07-25T18:48:49.911Z,22.88
2022-07-25T18:51:16.271Z,22.76
2022-07-25T18:53:47.337Z,22.82
2022-07-25T18:56:16.424Z,22.75
2022-07-25T18:58:42.777Z,22.98
2022-07-25T19:01:09.229Z,22.74
2022-07-25T19:03:35.723Z,22.76
2022-07-25T19:06:03.597Z,22.59
2022-07-25T19:08:30.130Z,22.71
2022-07-25T19:10:56.468Z,23.04
2022-07-25T19:13:47.752Z,22.52
2022-07-25T19:16:10.540Z,22.36
2022-07-25T19:18:37.336Z,22.26
2022-07-25T19:21:04.085Z,22.22
2022-07-25T19:23:30.444Z,22.22
2022-07-25T19:25:57.082Z,22.10
2022-07-25T19:28:24.843Z,22.06
2022-07-25T19:30:51.233Z,22.12
2022-07-25T19:33:17.576Z,22.04
2022-07-25T19:35:43.911Z,21.90
2022-07-25T19:38:10.246Z,21.85
2022-07-25T19:40:38.074Z,21.73
2022-07-25T19:43:04.436Z,21.69
2022-07-25T19:45:32.140Z,21.72
2022-07-25T19:47:58.530Z,21.63
2022-07-25T19:50:24.991Z,21.70
2022-07-25T19:52:51.349Z,21.57
2022-07-25T19:55:17.696Z,21.49
2022-07-25T19:57:44.053Z,21.46
2022-07-25T20:00:11.089Z,21.49
2022-07-25T20:02:39.086Z,21.42
2022-07-25T20:05:06.654Z,21.42
2022-07-25T20:07:32.991Z,21.45
2022-07-25T20:09:59.352Z,21.35
2022-07-25T20:12:25.712Z,21.25
2022-07-25T20:14:52.043Z,21.30
2022-07-25T20:17:18.446Z,21.17
2022-07-25T20:19:46.341Z,21.14
2022-07-25T20:22:13.469Z,21.16
2022-07-25T20:24:39.835Z,21.06
2022-07-25T20:27:06.164Z,21.00
2022-07-25T20:29:32.533Z,20.94
2022-07-25T20:31:58.888Z,20.86
2022-07-25T20:34:25.318Z,20.82
2022-07-25T20:36:53.275Z,20.77
2022-07-25T20:39:19.625Z,20.72
2022-07-25T20:41:47.002Z,20.63
2022-07-25T20:44:13.568Z,20.63
2022-07-25T20:46:39.963Z,20.58
2022-07-25T20:49:07.165Z,20.56
2022-07-25T20:51:33.791Z,20.52
2022-07-25T20:54:01.506Z,20.47
2022-07-25T20:56:27.832Z,20.54
2022-07-25T20:58:54.186Z,20.61
2022-07-25T21:01:20.606Z,20.41
2022-07-25T21:03:47.041Z,20.34
2022-07-25T21:06:13.433Z,20.29
2022-07-25T21:08:39.775Z,20.24
2022-07-25T21:11:07.798Z,20.24
2022-07-25T21:13:34.252Z,20.24
2022-07-25T21:16:00.614Z,20.23
2022-07-25T21:18:27.151Z,20.15
2022-07-25T21:20:53.498Z,20.21
2022-07-25T21:23:20.103Z,20.20
2022-07-25T21:25:46.510Z,20.19
2022-07-25T21:28:14.217Z,20.22
2022-07-25T21:30:41.470Z,20.17
2022-07-25T21:33:14.183Z,20.18
2022-07-25T21:35:50.580Z,20.20
2022-07-25T21:38:27.633Z,20.19
2022-07-25T21:40:55.415Z,20.14
2022-07-25T21:43:23.166Z,20.11
2022-07-25T21:45:50.172Z,20.12
2022-07-25T21:48:16.600Z,20.10
2022-07-25T21:50:48.472Z,20.06
2022-07-25T21:53:16.677Z,20.02
2022-07-25T21:55:43.010Z,19.92
2022-07-25T21:58:09.318Z,19.94
2022-07-25T22:00:43.859Z,19.88
2022-07-25T22:03:11.963Z,19.84
2022-07-25T22:05:38.291Z,19.84
2022-07-25T22:08:05.063Z,19.76
2022-07-25T22:10:31.432Z,19.71
2022-07-25T22:12:57.755Z,19.68
2022-07-25T22:15:24.089Z,19.63
2022-07-25T22:17:51.801Z,19.61
2022-07-25T22:20:18.801Z,19.54
2022-07-25T22:22:45.317Z,19.52
2022-07-25T22:25:11.651Z,19.46
2022-07-25T22:27:38.037Z,19.41
2022-07-25T22:30:05.446Z,19.38
2022-07-25T22:32:31.776Z,19.32
2022-07-25T22:34:59.493Z,19.24
2022-07-25T22:37:26.023Z,19.22
2022-07-25T22:39:57.715Z,19.18
2022-07-25T22:42:27.019Z,19.15
2022-07-25T22:44:53.336Z,19.13
2022-07-25T22:47:19.698Z,19.09
2022-07-25T22:49:46.156Z,19.06
2022-07-25T22:52:13.815Z,19.03
2022-07-25T22:54:40.171Z,18.94
2022-07-25T22:57:06.489Z,18.90
2022-07-25T22:59:32.866Z,18.90
2022-07-25T23:01:59.250Z,18.87
2022-07-25T23:04:25.749Z,18.85
2022-07-25T23:06:52.396Z,18.82
2022-07-25T23:09:20.164Z,18.85
2022-07-25T23:11:46.510Z,18.82
2022-07-25T23:14:12.856Z,18.78
2022-07-25T23:16:39.281Z,18.70
2022-07-25T23:19:06.002Z,18.68
2022-07-25T23:21:32.632Z,18.64
2022-07-25T23:23:58.978Z,18.57
2022-07-25T23:26:26.811Z,18.50
2022-07-25T23:28:53.372Z,18.48
2022-07-25T23:31:19.728Z,18.43
2022-07-25T23:33:46.131Z,18.43
2022-07-25T23:36:12.470Z,18.39
2022-07-25T23:38:38.821Z,18.37
2022-07-25T23:41:05.304Z,18.34
2022-07-25T23:43:55.953Z,18.32
2022-07-25T23:46:22.479Z,18.28
2022-07-25T23:48:54.341Z,18.28
2022-07-25T23:51:20.742Z,18.27
2022-07-25T23:53:47.099Z,18.22
2022-07-25T23:56:18.622Z,18.21
2022-07-25T23:58:48.428Z,18.17
